Time;durP1;ratioP1;P1;durP2;ratioP2;P2;SDS_P1;SDS_P2;PMS_P1;PMS_P2;Temp;Humidity;BMP_temperature;BMP_pressure;BME280_temperature;BME280_humidity;BME280_pressure;Samples;Min_cycle;Max_cycle;Signal;HPM_P1;HPM_P2
2021/08/05 00:00:35;;;;;;;;;;;;;;;14.20;86.25;98973.03;5031289;28;20393;-61
2021/08/05 00:03:01;;;;;;;;;;;;;;;14.23;86.09;98975.19;5035695;28;20314;-61
2021/08/05 00:05:26;;;;;;;;;;;;;;;14.24;85.82;98979.47;5033727;28;19922;-61
2021/08/05 00:07:51;;;;;;;;;;;;;;;14.15;86.46;98980.28;5035372;28;19974;-61
2021/08/05 00:10:16;;;;;;;;;;;;;;;14.15;86.35;98975.72;5035209;28;19917;-61
2021/08/05 00:12:42;;;;;;;;;;;;;;;14.19;86.53;98976.78;5035383;28;20294;-61
2021/08/05 00:15:07;;;;;;;;;;;;;;;14.24;86.31;98970.59;5034899;28;19917;-61
2021/08/05 00:17:32;;;;;;;;;;;;;;;14.28;86.09;98970.84;5035369;28;19918;-61
2021/08/05 00:19:58;;;;;;;;;;;;;;;14.29;86.02;98964.38;5035228;28;20279;-61
2021/08/05 00:22:23;;;;;;;;;;;;;;;14.27;85.99;98970.03;5034767;28;19921;-61
2021/08/05 00:24:48;;;;;;;;;;;;;;;14.31;85.75;98957.63;5035335;28;19980;-61
2021/08/05 00:27:13;;;;;;;;;;;;;;;14.34;85.64;98961.66;5033514;28;20000;-62
2021/08/05 00:29:39;;;;;;;;;;;;;;;14.37;86.06;98964.63;5035067;28;19917;-61
2021/08/05 00:32:04;;;;;;;;;;;;;;;14.32;86.30;98963.81;5034706;28;19927;-61
2021/08/05 00:34:29;;;;;;;;;;;;;;;14.30;86.40;98961.38;5033618;28;19967;-61
2021/08/05 00:36:55;;;;;;;;;;;;;;;14.30;86.40;98965.97;5034626;28;19948;-62
2021/08/05 00:39:20;;;;;;;;;;;;;;;14.27;86.31;98969.22;5034951;28;19938;-62
2021/08/05 00:41:45;;;;;;;;;;;;;;;14.17;86.49;98961.97;5034329;28;19933;-61
2021/08/05 00:44:10;;;;;;;;;;;;;;;14.13;87.01;98966.31;5034822;28;19921;-61
2021/08/05 00:46:36;;;;;;;;;;;;;;;14.14;87.03;98963.31;5034500;28;19918;-62
2021/08/05 00:49:02;;;;;;;;;;;;;;;14.03;87.79;98957.16;5034736;28;19928;-61
2021/08/05 00:51:27;;;;;;;;;;;;;;;14.03;87.85;98951.75;5034235;28;19974;-61
2021/08/05 00:53:52;;;;;;;;;;;;;;;13.98;88.06;98948.28;5033585;28;19913;-61
2021/08/05 00:56:17;;;;;;;;;;;;;;;13.97;88.31;98944.75;5034205;28;19925;-61
2021/08/05 00:58:42;;;;;;;;;;;;;;;13.94;88.67;98948.00;5034621;28;20059;-62
2021/08/05 01:01:11;;;;;;;;;;;;;;;13.89;88.88;98945.31;5034033;28;19925;-61
2021/08/05 01:03:38;;;;;;;;;;;;;;;13.89;88.45;98945.31;5034367;28;19921;-61
2021/08/05 01:06:22;;;;;;;;;;;;;;;13.87;88.73;98942.06;5033954;28;19928;-61
2021/08/05 01:08:50;;;;;;;;;;;;;;;13.89;89.14;98934.53;5034534;28;19917;-61
2021/08/05 01:11:23;;;;;;;;;;;;;;;13.82;89.54;98929.41;5033856;28;20009;-61
2021/08/05 01:13:55;;;;;;;;;;;;;;;13.80;89.77;98936.97;5032860;28;20390;-61
2021/08/05 01:16:21;;;;;;;;;;;;;;;13.87;89.70;98936.69;5033799;28;20402;-61
2021/08/05 01:18:46;;;;;;;;;;;;;;;13.93;89.33;98935.59;5034418;28;19948;-61
2021/08/05 01:21:16;;;;;;;;;;;;;;;13.89;89.72;98939.13;5032473;28;20383;-61
2021/08/05 01:23:54;;;;;;;;;;;;;;;13.86;89.64;98940.47;5034177;28;19971;-61
2021/08/05 01:26:31;;;;;;;;;;;;;;;13.82;89.91;98942.06;5032435;28;19976;-61
2021/08/05 01:28:56;;;;;;;;;;;;;;;13.85;89.87;98930.75;5033909;28;19917;-61
2021/08/05 01:31:22;;;;;;;;;;;;;;;13.79;90.11;98935.34;5030105;28;20398;-61
2021/08/05 01:33:47;;;;;;;;;;;;;;;13.75;90.70;98933.44;5033762;28;19976;-61
2021/08/05 01:36:12;;;;;;;;;;;;;;;13.74;90.66;98931.84;5032119;28;19922;-61
2021/08/05 01:38:38;;;;;;;;;;;;;;;13.80;90.31;98936.13;5032803;28;19921;-61
2021/08/05 01:41:06;;;;;;;;;;;;;;;13.84;90.14;98929.16;5032167;28;20280;-61
2021/08/05 01:43:32;;;;;;;;;;;;;;;13.83;89.73;98930.22;5032513;28;19952;-61
2021/08/05 01:45:57;;;;;;;;;;;;;;;13.81;89.96;98927.00;5033254;28;19957;-61
2021/08/05 01:48:22;;;;;;;;;;;;;;;13.71;90.60;98921.63;5032437;28;20007;-61
2021/08/05 01:50:47;;;;;;;;;;;;;;;13.77;90.21;98923.22;5032164;28;19932;-61
2021/08/05 01:53:13;;;;;;;;;;;;;;;13.80;90.22;98925.38;5033134;28;20003;-61
2021/08/05 01:55:38;;;;;;;;;;;;;;;13.71;90.45;98922.44;5028792;28;19925;-62
2021/08/05 01:58:04;;;;;;;;;;;;;;;13.70;90.48;98917.28;5033518;28;19921;-61
2021/08/05 02:00:29;;;;;;;;;;;;;;;13.72;90.62;98917.84;5033361;28;20295;-61
2021/08/05 02:02:54;;;;;;;;;;;;;;;13.75;90.44;98912.75;5033515;28;20024;-61
2021/08/05 02:05:30;;;;;;;;;;;;;;;13.74;90.46;98910.31;5033080;28;19929;-61
2021/08/05 02:07:58;;;;;;;;;;;;;;;13.69;90.37;98908.41;5033562;28;19921;-61
2021/08/05 02:10:34;;;;;;;;;;;;;;;13.71;90.19;98908.16;5032923;28;19921;-61
2021/08/05 02:13:17;;;;;;;;;;;;;;;13.78;89.77;98912.19;5033350;28;19924;-61
2021/08/05 02:15:47;;;;;;;;;;;;;;;13.82;89.90;98915.13;5033157;28;20331;-61
2021/08/05 02:18:12;;;;;;;;;;;;;;;13.81;90.11;98905.44;5032325;28;19932;-61
2021/08/05 02:20:37;;;;;;;;;;;;;;;13.79;90.55;98896.81;5031384;28;19925;-61
2021/08/05 02:23:02;;;;;;;;;;;;;;;13.77;90.61;98899.78;5033148;28;20062;-61
2021/08/05 02:25:28;;;;;;;;;;;;;;;13.77;90.49;98898.97;5031907;28;19928;-61
2021/08/05 02:27:53;;;;;;;;;;;;;;;13.78;90.69;98900.63;5033313;28;19917;-61
2021/08/05 02:30:18;;;;;;;;;;;;;;;13.79;90.69;98896.81;5033011;28;19918;-61
2021/08/05 02:32:44;;;;;;;;;;;;;;;13.68;91.13;98903.28;5033269;28;20393;-61
2021/08/05 02:35:09;;;;;;;;;;;;;;;13.61;91.28;98895.50;5032941;28;19963;-61
2021/08/05 02:37:35;;;;;;;;;;;;;;;13.63;91.17;98893.34;5033207;28;19921;-61
2021/08/05 02:40:01;;;;;;;;;;;;;;;13.67;90.25;98888.22;5031719;28;20426;-62
2021/08/05 02:42:26;;;;;;;;;;;;;;;13.69;90.09;98886.06;5032043;28;19917;-61
2021/08/05 02:44:51;;;;;;;;;;;;;;;13.69;90.11;98869.91;5033041;28;20028;-61
2021/08/05 02:47:16;;;;;;;;;;;;;;;13.74;89.68;98873.41;5031477;28;19921;-61
2021/08/05 02:49:42;;;;;;;;;;;;;;;13.78;89.16;98874.47;5015383;28;20368;-61
2021/08/05 02:52:07;;;;;;;;;;;;;;;13.83;89.05;98881.75;5032606;28;19925;-61
2021/08/05 02:54:32;;;;;;;;;;;;;;;13.82;89.24;98880.91;5032903;28;20439;-61
2021/08/05 02:56:57;;;;;;;;;;;;;;;13.71;90.36;98879.34;5032524;28;19970;-61
2021/08/05 02:59:24;;;;;;;;;;;;;;;13.74;90.15;98880.69;5033098;28;20023;-61
2021/08/05 03:01:49;;;;;;;;;;;;;;;13.77;90.27;98880.13;5031443;28;19925;-61
2021/08/05 03:04:14;;;;;;;;;;;;;;;13.77;89.88;98877.44;5032834;28;19921;-61
2021/08/05 03:06:39;;;;;;;;;;;;;;;13.71;90.58;98875.84;5035596;28;19948;-61
2021/08/05 03:09:05;;;;;;;;;;;;;;;13.64;91.24;98875.31;5037191;28;19932;-61
2021/08/05 03:11:30;;;;;;;;;;;;;;;13.65;91.00;98879.59;5034837;28;20405;-62
2021/08/05 03:13:55;;;;;;;;;;;;;;;13.67;90.43;98875.56;5036734;28;19921;-61
2021/08/05 03:16:20;;;;;;;;;;;;;;;13.71;90.51;98873.16;5036290;28;19960;-61
2021/08/05 03:18:45;;;;;;;;;;;;;;;13.68;90.37;98865.59;5036484;28;19976;-61
2021/08/05 03:21:11;;;;;;;;;;;;;;;13.57;90.80;98860.22;5036008;28;19921;-61
2021/08/05 03:23:36;;;;;;;;;;;;;;;13.51;91.45;98858.63;5036414;28;19921;-61
2021/08/05 03:26:01;;;;;;;;;;;;;;;13.53;91.44;98855.66;5034753;28;19964;-61
2021/08/05 03:28:26;;;;;;;;;;;;;;;13.59;90.92;98849.97;5036500;28;20310;-61
2021/08/05 03:30:52;;;;;;;;;;;;;;;13.61;90.60;98857.00;5035926;28;20012;-61
2021/08/05 03:33:17;;;;;;;;;;;;;;;13.65;90.43;98849.97;5033071;28;19917;-61
2021/08/05 03:35:42;;;;;;;;;;;;;;;13.66;90.14;98849.72;5035726;28;19921;-61
2021/08/05 03:38:08;;;;;;;;;;;;;;;13.67;90.47;98855.91;5036062;28;20378;-61
2021/08/05 03:40:33;;;;;;;;;;;;;;;13.73;90.24;98860.22;5035632;28;19928;-61
2021/08/05 03:42:58;;;;;;;;;;;;;;;13.64;90.52;98856.47;5036142;28;20276;-61
2021/08/05 03:45:23;;;;;;;;;;;;;;;13.57;91.21;98856.72;5035664;28;19970;-61
2021/08/05 03:47:48;;;;;;;;;;;;;;;13.51;91.63;98849.75;5036071;28;19917;-61
2021/08/05 03:50:14;;;;;;;;;;;;;;;13.50;91.39;98851.59;5035471;28;20283;-61
2021/08/05 03:52:39;;;;;;;;;;;;;;;13.48;91.51;98851.09;5035916;28;20026;-61
2021/08/05 03:55:05;;;;;;;;;;;;;;;13.51;91.27;98852.44;5035477;28;19924;-61
2021/08/05 03:57:30;;;;;;;;;;;;;;;13.51;91.28;98847.03;5032741;28;19913;-61
2021/08/05 03:59:55;;;;;;;;;;;;;;;13.51;90.97;98852.44;5036103;28;19917;-61
2021/08/05 04:02:21;;;;;;;;;;;;;;;13.48;90.98;98848.41;5034484;28;20379;-61
2021/08/05 04:04:46;;;;;;;;;;;;;;;13.45;91.42;98848.91;5035658;28;20308;-61
2021/08/05 04:07:13;;;;;;;;;;;;;;;13.47;91.65;98851.34;5034464;28;20220;-61
2021/08/05 04:09:39;;;;;;;;;;;;;;;13.51;91.77;98849.75;5035887;28;19921;-61
2021/08/05 04:12:04;;;;;;;;;;;;;;;13.56;91.22;98847.84;5035181;28;19922;-61
2021/08/05 04:14:29;;;;;;;;;;;;;;;13.58;91.36;98842.19;5035553;28;20329;-61
2021/08/05 04:16:54;;;;;;;;;;;;;;;13.60;91.10;98840.00;5034600;28;19921;-61
2021/08/05 04:19:20;;;;;;;;;;;;;;;13.58;91.10;98845.69;5035533;28;20431;-61
2021/08/05 04:21:49;;;;;;;;;;;;;;;13.63;90.81;98844.06;5035180;28;19921;-61
2021/08/05 04:24:15;;;;;;;;;;;;;;;13.62;91.14;98842.44;5034443;28;19917;-60
2021/08/05 04:26:40;;;;;;;;;;;;;;;13.51;91.67;98839.78;5034940;28;19924;-62
2021/08/05 04:29:05;;;;;;;;;;;;;;;13.57;91.35;98837.88;5035352;28;19924;-61
2021/08/05 04:31:30;;;;;;;;;;;;;;;13.56;91.43;98844.34;5034830;28;19952;-60
2021/08/05 04:33:56;;;;;;;;;;;;;;;14.06;90.27;98847.22;5034992;28;19917;-60
2021/08/05 04:36:21;;;;;;;;;;;;;;;14.66;86.33;98845.34;5034567;28;19921;-60
2021/08/05 04:38:46;;;;;;;;;;;;;;;14.17;88.47;98844.19;5034961;28;19944;-60
2021/08/05 04:41:11;;;;;;;;;;;;;;;14.02;89.48;98845.03;5034548;28;19925;-61
2021/08/05 04:43:37;;;;;;;;;;;;;;;13.83;91.08;98846.72;5035163;28;19918;-61
2021/08/05 04:46:02;;;;;;;;;;;;;;;13.80;91.24;98858.03;5034744;28;20287;-61
2021/08/05 04:48:27;;;;;;;;;;;;;;;13.84;90.74;98856.41;5034869;28;19923;-61
2021/08/05 04:50:53;;;;;;;;;;;;;;;13.85;90.81;98849.94;5034430;28;19928;-61
2021/08/05 04:53:18;;;;;;;;;;;;;;;13.78;90.90;98844.06;5034722;28;20315;-61
2021/08/05 04:55:44;;;;;;;;;;;;;;;13.71;91.59;98851.59;5034468;28;19921;-61
2021/08/05 04:58:09;;;;;;;;;;;;;;;13.89;90.82;98848.31;5034711;28;20379;-61
2021/08/05 05:00:38;;;;;;;;;;;;;;;13.91;90.77;98842.66;5034248;28;19921;-61
2021/08/05 05:03:03;;;;;;;;;;;;;;;13.86;91.06;98842.69;5034904;28;19921;-61
2021/08/05 05:05:29;;;;;;;;;;;;;;;13.97;90.95;98834.28;5034216;28;19926;-61
2021/08/05 05:07:54;;;;;;;;;;;;;;;14.07;90.30;98838.03;5033618;28;19959;-61
2021/08/05 05:10:19;;;;;;;;;;;;;;;14.03;90.37;98841.28;5034269;28;19956;-61
2021/08/05 05:12:45;;;;;;;;;;;;;;;14.26;88.99;98841.75;5034246;28;20359;-60
2021/08/05 05:15:10;;;;;;;;;;;;;;;14.35;88.54;98833.88;5033951;28;20011;-60
2021/08/05 05:17:36;;;;;;;;;;;;;;;14.41;88.54;98843.56;5034270;28;19923;-61
2021/08/05 05:20:01;;;;;;;;;;;;;;;14.49;88.48;98844.88;5032771;28;19972;-61
2021/08/05 05:22:27;;;;;;;;;;;;;;;14.57;88.28;98842.41;5034384;28;19918;-61
2021/08/05 05:24:52;;;;;;;;;;;;;;;14.50;88.26;98838.38;5030971;28;20387;-61
2021/08/05 05:27:17;;;;;;;;;;;;;;;14.40;88.45;98836.53;5033307;28;20409;-61
2021/08/05 05:29:42;;;;;;;;;;;;;;;14.34;88.78;98837.66;5033570;28;19917;-61
2021/08/05 05:32:08;;;;;;;;;;;;;;;14.29;89.52;98832.28;5033585;28;19925;-61
2021/08/05 05:34:33;;;;;;;;;;;;;;;14.29;89.59;98835.00;5032621;28;19925;-61
2021/08/05 05:36:58;;;;;;;;;;;;;;;14.27;89.46;98837.94;5033526;28;20016;-61
2021/08/05 05:39:24;;;;;;;;;;;;;;;14.36;89.21;98833.59;5034010;28;19917;-61
2021/08/05 05:41:49;;;;;;;;;;;;;;;14.45;88.54;98831.94;5033502;28;20375;-61
2021/08/05 05:44:14;;;;;;;;;;;;;;;14.64;88.01;98840.22;5033897;28;19925;-61
2021/08/05 05:46:39;;;;;;;;;;;;;;;14.72;87.68;98852.31;5033754;28;19921;-61
2021/08/05 05:49:05;;;;;;;;;;;;;;;14.97;86.86;98850.56;5033846;28;20324;-61
2021/08/05 05:51:30;;;;;;;;;;;;;;;14.96;86.63;98851.66;5033333;28;19929;-61
2021/08/05 05:53:55;;;;;;;;;;;;;;;14.77;86.94;98846.09;5033579;28;19979;-61
2021/08/05 05:56:20;;;;;;;;;;;;;;;14.79;86.65;98844.72;5033189;28;19921;-61
2021/08/05 05:58:46;;;;;;;;;;;;;;;14.94;85.68;98846.53;5032376;28;19943;-61
2021/08/05 06:01:11;;;;;;;;;;;;;;;15.34;84.81;98843.81;5033252;28;20408;-61
2021/08/05 06:03:36;;;;;;;;;;;;;;;15.35;84.32;98845.41;5033375;28;19921;-61
2021/08/05 06:06:01;;;;;;;;;;;;;;;15.42;83.31;98845.88;5029827;28;19972;-61
2021/08/05 06:08:26;;;;;;;;;;;;;;;15.12;84.21;98836.94;5033522;28;19924;-61
2021/08/05 06:10:52;;;;;;;;;;;;;;;15.47;83.68;98838.53;5032911;28;19925;-61
2021/08/05 06:13:17;;;;;;;;;;;;;;;15.67;82.00;98844.84;5032130;28;19917;-61
2021/08/05 06:15:42;;;;;;;;;;;;;;;15.50;82.73;98846.09;5031740;28;19928;-61
2021/08/05 06:18:08;;;;;;;;;;;;;;;15.86;81.66;98851.16;5032272;28;19921;-61
2021/08/05 06:20:33;;;;;;;;;;;;;;;17.06;76.38;98844.00;5033127;28;19917;-61
2021/08/05 06:22:58;;;;;;;;;;;;;;;17.74;74.02;98846.09;5033243;28;19928;-61
2021/08/05 06:25:23;;;;;;;;;;;;;;;17.44;74.70;98850.16;5032898;28;20243;-61
2021/08/05 06:27:49;;;;;;;;;;;;;;;17.66;73.96;98853.00;5033509;28;19913;-61
2021/08/05 06:30:14;;;;;;;;;;;;;;;17.06;75.76;98852.13;5031831;28;19960;-61
2021/08/05 06:32:39;;;;;;;;;;;;;;;17.22;75.63;98854.31;5033322;28;19976;-61
2021/08/05 06:35:05;;;;;;;;;;;;;;;17.05;75.58;98848.63;5031519;28;19940;-61
2021/08/05 06:37:31;;;;;;;;;;;;;;;17.20;74.74;98845.66;5033466;28;20003;-62
2021/08/05 06:39:57;;;;;;;;;;;;;;;17.29;74.92;98839.56;5035387;28;20374;-61
2021/08/05 06:42:22;;;;;;;;;;;;;;;17.29;74.64;98843.06;5036977;28;19921;-61
2021/08/05 06:44:47;;;;;;;;;;;;;;;21.27;60.31;98850.13;5037165;28;19979;-61
2021/08/05 06:47:13;;;;;;;;;;;;;;;22.14;56.76;98853.44;5036800;28;19917;-61
2021/08/05 06:49:38;;;;;;;;;;;;;;;24.04;50.50;98855.00;5035838;28;20030;-61
2021/08/05 06:52:03;;;;;;;;;;;;;;;25.77;47.11;98850.69;5036604;28;19921;-61
2021/08/05 06:54:29;;;;;;;;;;;;;;;26.08;44.53;98853.81;5036900;28;20382;-61
2021/08/05 06:56:54;;;;;;;;;;;;;;;24.37;49.06;98845.84;5036607;28;19967;-61
2021/08/05 06:59:20;;;;;;;;;;;;;;;22.55;53.21;98838.31;5036971;28;19913;-60
2021/08/05 07:01:46;;;;;;;;;;;;;;;26.86;43.68;98844.66;5036388;28;19921;-59
2021/08/05 07:04:11;;;;;;;;;;;;;;;28.20;40.32;98842.44;5036601;28;19975;-60
2021/08/05 07:06:36;;;;;;;;;;;;;;;25.11;45.39;98846.53;5036367;28;19927;-60
2021/08/05 07:09:02;;;;;;;;;;;;;;;24.61;49.06;98847.00;5036749;28;19925;-60
2021/08/05 07:11:27;;;;;;;;;;;;;;;25.25;47.51;98846.16;5036382;28;20005;-60
2021/08/05 07:13:52;;;;;;;;;;;;;;;23.09;52.69;98845.81;5036620;28;20387;-60
2021/08/05 07:16:18;;;;;;;;;;;;;;;22.04;56.51;98842.91;5036372;28;19933;-60
2021/08/05 07:18:43;;;;;;;;;;;;;;;21.88;57.14;98841.81;5036367;28;20291;-60
2021/08/05 07:21:08;;;;;;;;;;;;;;;21.53;58.78;98844.66;5036248;28;19980;-60
2021/08/05 07:23:33;;;;;;;;;;;;;;;21.33;59.32;98846.91;5035404;28;20279;-60
2021/08/05 07:25:59;;;;;;;;;;;;;;;21.29;59.32;98845.13;5036156;28;20008;-60
2021/08/05 07:28:24;;;;;;;;;;;;;;;20.80;60.38;98839.09;5036355;28;19917;-60
2021/08/05 07:30:52;;;;;;;;;;;;;;;20.53;62.01;98830.03;5031472;28;19921;-60
2021/08/05 07:33:17;;;;;;;;;;;;;;;19.87;63.84;98832.75;5036225;28;19917;-60
2021/08/05 07:35:42;;;;;;;;;;;;;;;20.21;63.75;98828.53;5036204;28;19921;-60
2021/08/05 07:38:08;;;;;;;;;;;;;;;19.39;65.24;98827.94;5036185;28;20322;-60
2021/08/05 07:40:33;;;;;;;;;;;;;;;19.07;67.58;98824.41;5035611;28;19928;-60
2021/08/05 07:42:58;;;;;;;;;;;;;;;19.02;66.74;98820.97;5036099;28;19933;-61
2021/08/05 07:45:24;;;;;;;;;;;;;;;18.95;67.70;98821.44;5035707;28;19983;-60
2021/08/05 07:47:49;;;;;;;;;;;;;;;18.90;66.33;98818.84;5036060;28;19924;-60
2021/08/05 07:50:14;;;;;;;;;;;;;;;19.69;65.19;98820.16;5035536;28;19917;-60
2021/08/05 07:52:40;;;;;;;;;;;;;;;20.19;63.17;98817.16;5035539;28;19917;-60
2021/08/05 07:55:06;;;;;;;;;;;;;;;20.63;61.70;98821.59;5035413;28;20016;-60
2021/08/05 07:57:31;;;;;;;;;;;;;;;20.74;61.68;98816.63;5034814;28;20438;-60
2021/08/05 07:59:56;;;;;;;;;;;;;;;20.50;61.96;98819.00;5033603;28;19917;-60
2021/08/05 08:02:22;;;;;;;;;;;;;;;20.37;62.62;98816.09;5035078;28;19922;-60
2021/08/05 08:04:47;;;;;;;;;;;;;;;19.04;67.81;98814.13;5035499;28;19928;-61
2021/08/05 08:07:12;;;;;;;;;;;;;;;22.82;57.47;98817.06;5035251;28;19921;-61
2021/08/05 08:09:37;;;;;;;;;;;;;;;25.20;49.26;98818.19;5035634;28;19943;-60
2021/08/05 08:12:03;;;;;;;;;;;;;;;23.00;52.48;98812.28;5035067;28;19921;-60
2021/08/05 08:14:28;;;;;;;;;;;;;;;24.78;49.70;98821.28;5035502;28;19928;-60
2021/08/05 08:16:53;;;;;;;;;;;;;;;24.64;48.16;98816.97;5035091;28;19944;-59
2021/08/05 08:19:19;;;;;;;;;;;;;;;26.14;45.04;98813.97;5035307;28;19917;-60
2021/08/05 08:21:44;;;;;;;;;;;;;;;21.41;54.38;98809.06;5035005;28;19960;-61
2021/08/05 08:24:10;;;;;;;;;;;;;;;23.29;49.53;98802.34;5035631;28;20310;-61
2021/08/05 08:26:36;;;;;;;;;;;;;;;23.71;48.03;98802.22;5034940;28;19921;-61
2021/08/05 08:29:01;;;;;;;;;;;;;;;23.75;48.13;98803.97;5035299;28;19936;-60
2021/08/05 08:31:26;;;;;;;;;;;;;;;25.90;44.18;98809.44;5033344;28;19921;-61
2021/08/05 08:33:52;;;;;;;;;;;;;;;23.38;47.89;98806.59;5035537;28;19917;-61
2021/08/05 08:36:17;;;;;;;;;;;;;;;24.07;47.26;98805.03;5034796;28;20060;-61
2021/08/05 08:38:43;;;;;;;;;;;;;;;25.93;42.17;98809.53;5035080;28;19917;-60
2021/08/05 08:41:11;;;;;;;;;;;;;;;25.59;43.82;98811.00;5034711;28;19928;-61
2021/08/05 08:43:36;;;;;;;;;;;;;;;24.74;44.51;98805.53;5035052;28;20354;-59
2021/08/05 08:46:01;;;;;;;;;;;;;;;25.64;42.85;98796.25;5034619;28;19928;-59
2021/08/05 08:48:27;;;;;;;;;;;;;;;23.53;47.37;98790.69;5033683;28;19955;-59
2021/08/05 08:50:53;;;;;;;;;;;;;;;20.88;55.06;98798.22;5033142;28;20265;-59
2021/08/05 08:53:18;;;;;;;;;;;;;;;22.90;49.41;98780.69;5034966;28;19927;-59
2021/08/05 08:55:43;;;;;;;;;;;;;;;22.81;53.28;98788.97;5033073;28;19967;-60
2021/08/05 08:58:09;;;;;;;;;;;;;;;24.30;47.93;98791.66;5034756;28;20016;-60
2021/08/05 09:00:36;;;;;;;;;;;;;;;24.06;47.89;98786.19;5032972;28;19918;-60
2021/08/05 09:03:02;;;;;;;;;;;;;;;22.80;50.35;98784.63;5034265;28;19925;-60
2021/08/05 09:05:28;;;;;;;;;;;;;;;23.38;49.71;98782.00;5034532;28;19925;-62
2021/08/05 09:07:53;;;;;;;;;;;;;;;23.09;49.95;98782.13;5034716;28;19913;-61
2021/08/05 09:10:19;;;;;;;;;;;;;;;23.45;50.26;98787.72;5034091;28;20299;-61
2021/08/05 09:12:46;;;;;;;;;;;;;;;22.98;50.55;98770.81;5034187;28;19913;-61
2021/08/05 09:15:11;;;;;;;;;;;;;;;23.76;49.48;98778.19;5032722;28;19917;-59
2021/08/05 09:17:43;;;;;;;;;;;;;;;24.62;44.65;98774.63;5034223;28;19959;-59
2021/08/05 09:20:09;;;;;;;;;;;;;;;23.51;47.45;98771.09;5033843;28;20421;-61
2021/08/05 09:22:39;;;;;;;;;;;;;;;22.00;50.41;98771.00;5034360;28;19917;-60
2021/08/05 09:25:31;;;;;;;;;;;;;;;22.72;47.99;98773.78;5034264;28;19917;-60
2021/08/05 09:28:00;;;;;;;;;;;;;;;22.66;49.33;98769.63;5028652;28;20398;-59
2021/08/05 09:30:27;;;;;;;;;;;;;;;23.47;49.03;98768.25;5033803;28;19944;-59
2021/08/05 09:32:53;;;;;;;;;;;;;;;24.93;45.62;98771.19;5034145;28;20014;-60
2021/08/05 09:35:18;;;;;;;;;;;;;;;25.71;42.26;98777.19;5033498;28;20026;-60
2021/08/05 09:37:43;;;;;;;;;;;;;;;24.41;42.34;98774.75;5033998;28;19917;-60
2021/08/05 09:40:09;;;;;;;;;;;;;;;23.81;46.17;98775.28;5033555;28;19921;-60
2021/08/05 09:42:35;;;;;;;;;;;;;;;24.26;44.07;98774.34;5032525;28;20008;-60
2021/08/05 09:45:00;;;;;;;;;;;;;;;24.37;45.38;98771.91;5034077;28;20384;-60
2021/08/05 09:47:25;;;;;;;;;;;;;;;24.37;44.53;98771.13;5033847;28;19924;-60
2021/08/05 09:49:54;;;;;;;;;;;;;;;25.21;42.61;98768.50;5033859;28;19924;-60
2021/08/05 09:52:33;;;;;;;;;;;;;;;27.41;38.83;98759.31;5033335;28;19975;-60
2021/08/05 09:54:59;;;;;;;;;;;;;;;27.95;36.61;98765.72;5033595;28;19918;-60
2021/08/05 09:57:25;;;;;;;;;;;;;;;25.55;40.09;98761.50;5033322;28;20372;-60
2021/08/05 09:59:57;;;;;;;;;;;;;;;24.30;45.07;98756.06;5033440;28;20359;-60
2021/08/05 10:02:22;;;;;;;;;;;;;;;24.10;45.03;98760.53;5029893;28;19944;-60
2021/08/05 10:04:48;;;;;;;;;;;;;;;25.33;43.04;98762.91;5033382;28;20387;-60
2021/08/05 10:07:14;;;;;;;;;;;;;;;25.36;44.32;98764.16;5033040;28;19982;-60
2021/08/05 10:09:40;;;;;;;;;;;;;;;25.39;44.59;98764.25;5033965;28;19917;-60
2021/08/05 10:12:09;;;;;;;;;;;;;;;24.68;44.69;98760.31;5032898;28;19955;-60
2021/08/05 10:14:35;;;;;;;;;;;;;;;24.99;43.71;98756.13;5032948;28;19983;-60
2021/08/05 10:17:00;;;;;;;;;;;;;;;25.02;43.02;98757.34;5031779;28;19928;-60
2021/08/05 10:19:25;;;;;;;;;;;;;;;24.85;43.18;98750.22;5033401;28;19921;-59
2021/08/05 10:21:51;;;;;;;;;;;;;;;25.08;43.25;98744.97;5031753;28;20280;-60
2021/08/05 10:24:17;;;;;;;;;;;;;;;24.19;44.98;98749.47;5032037;28;19964;-60
2021/08/05 10:26:42;;;;;;;;;;;;;;;24.17;44.29;98749.00;5032881;28;20431;-60
2021/08/05 10:29:07;;;;;;;;;;;;;;;25.18;43.72;98742.53;5033291;28;19923;-60
2021/08/05 10:31:33;;;;;;;;;;;;;;;26.49;39.64;98739.00;5031719;28;19947;-60
2021/08/05 10:33:58;;;;;;;;;;;;;;;26.52;38.12;98724.53;5033280;28;20003;-60
2021/08/05 10:36:23;;;;;;;;;;;;;;;27.16;36.54;98725.81;5032782;28;19921;-60
2021/08/05 10:38:48;;;;;;;;;;;;;;;27.19;35.39;98725.09;5033079;28;19983;-60
2021/08/05 10:41:14;;;;;;;;;;;;;;;27.41;36.55;98719.97;5031667;28;19960;-61
2021/08/05 10:43:39;;;;;;;;;;;;;;;26.35;40.21;98731.25;5033283;28;19924;-60
2021/08/05 10:46:04;;;;;;;;;;;;;;;24.25;41.62;98723.44;5031499;28;19921;-60
2021/08/05 10:48:30;;;;;;;;;;;;;;;25.37;39.78;98721.88;5032016;28;19917;-60
2021/08/05 10:50:55;;;;;;;;;;;;;;;25.55;39.42;98717.63;5031327;28;19921;-60
2021/08/05 10:53:33;;;;;;;;;;;;;;;26.94;37.43;98710.09;5032919;28;19921;-60
2021/08/05 10:56:17;;;;;;;;;;;;;;;25.89;38.32;98709.84;5032742;28;19928;-60
2021/08/05 10:59:00;;;;;;;;;;;;;;;24.03;42.88;98711.03;5033103;28;20044;-60
2021/08/05 11:01:41;;;;;;;;;;;;;;;24.77;41.71;98705.38;5032641;28;19949;-60
2021/08/05 11:04:06;;;;;;;;;;;;;;;25.44;39.97;98699.31;5032851;28;19925;-60
2021/08/05 11:06:31;;;;;;;;;;;;;;;25.41;39.16;98695.34;5032775;28;20326;-60
2021/08/05 11:09:16;;;;;;;;;;;;;;;25.42;38.35;98691.44;5032955;28;19921;-60
2021/08/05 11:11:42;;;;;;;;;;;;;;;23.32;41.65;98695.88;5031331;28;20334;-60
2021/08/05 11:14:07;;;;;;;;;;;;;;;24.90;40.72;98697.91;5032747;28;19917;-60
2021/08/05 11:16:54;;;;;;;;;;;;;;;26.86;37.86;98685.19;5032341;28;20276;-60
2021/08/05 11:19:28;;;;;;;;;;;;;;;26.31;37.00;98684.47;5033029;28;19925;-60
2021/08/05 11:21:53;;;;;;;;;;;;;;;22.73;43.38;98677.03;5032456;28;19963;-60
2021/08/05 11:24:37;;;;;;;;;;;;;;;22.37;43.25;98673.81;5032717;28;19968;-59
2021/08/05 11:27:12;;;;;;;;;;;;;;;24.43;41.77;98674.66;5034449;28;19956;-60
2021/08/05 11:29:37;;;;;;;;;;;;;;;23.73;40.97;98674.13;5036337;28;19971;-59
2021/08/05 11:32:21;;;;;;;;;;;;;;;23.80;40.75;98671.63;5031449;28;19922;-60
2021/08/05 11:34:59;;;;;;;;;;;;;;;24.83;39.89;98673.03;5036184;28;20306;-60
2021/08/05 11:37:24;;;;;;;;;;;;;;;25.88;38.28;98666.25;5035870;28;19929;-60
2021/08/05 11:39:53;;;;;;;;;;;;;;;26.22;37.50;98661.91;5035044;28;19913;-60
2021/08/05 11:42:19;;;;;;;;;;;;;;;24.95;40.81;98664.75;5035772;28;20008;-60
2021/08/05 11:44:56;;;;;;;;;;;;;;;24.92;40.57;98659.97;5011874;28;20001;-60
2021/08/05 11:47:21;;;;;;;;;;;;;;;25.18;40.90;98654.00;5034029;28;19925;-60
2021/08/05 11:49:46;;;;;;;;;;;;;;;25.11;40.33;98649.13;5035827;28;19920;-60
2021/08/05 11:52:15;;;;;;;;;;;;;;;25.02;40.02;98640.28;5015821;28;20387;-60
2021/08/05 11:54:41;;;;;;;;;;;;;;;24.58;40.94;98645.75;5000665;28;19922;-59
2021/08/05 11:57:07;;;;;;;;;;;;;;;25.03;40.65;98641.84;4995953;28;19928;-60
2021/08/05 11:59:36;;;;;;;;;;;;;;;26.12;37.83;98632.28;4996249;28;20225;-60
2021/08/05 12:02:09;;;;;;;;;;;;;;;25.36;40.88;98632.50;5008988;28;19953;-60
2021/08/05 12:04:34;;;;;;;;;;;;;;;23.02;45.15;98630.44;5015788;28;19976;-60
2021/08/05 12:09:13;;;;;;;5.53;3.08;;;;;;;22.68;48.50;98625.34;5056933;28;20896;-60
2021/08/05 12:11:38;;;;;;;5.32;3.60;;;;;;;22.83;47.53;98625.47;4996607;28;20118;-60
2021/08/05 12:14:04;;;;;;;7.93;3.25;;;;;;;21.92;49.56;98624.53;4970661;28;20074;-60
2021/08/05 12:16:30;;;;;;;6.57;3.20;;;;;;;22.11;48.84;98622.13;4996213;28;20042;-60
2021/08/05 12:18:55;;;;;;;7.88;3.88;;;;;;;21.72;50.98;98623.38;4992352;28;20040;-60
2021/08/05 12:21:21;;;;;;;4.85;3.05;;;;;;;21.90;50.40;98615.88;5010169;28;20108;-60
2021/08/05 12:23:53;;;;;;;4.90;3.17;;;;;;;22.91;47.17;98612.84;5010612;28;20023;-60
2021/08/05 12:26:22;;;;;;;5.38;2.88;;;;;;;22.25;49.13;98610.19;5010143;28;20039;-60
2021/08/05 12:28:48;;;;;;;5.50;2.90;;;;;;;23.52;46.33;98608.59;5010334;28;20176;-60
2021/08/05 12:31:20;;;;;;;4.90;3.20;;;;;;;22.63;47.47;98606.44;5009784;28;20361;-60
2021/08/05 12:33:46;;;;;;;5.18;2.92;;;;;;;23.38;46.46;98604.25;5010203;28;20366;-60
2021/08/05 12:36:21;;;;;;;6.20;3.15;;;;;;;21.95;50.04;98597.38;5009927;28;20034;-60
2021/08/05 12:39:05;;;;;;;6.45;3.15;;;;;;;22.37;49.71;98593.84;5010147;28;20034;-60
2021/08/05 12:41:33;;;;;;;7.90;3.50;;;;;;;22.63;48.30;98590.06;5009693;28;20043;-60